createdAt,value
2017-09-01T00:01:04.507Z,0
2017-09-01T00:02:16.882Z,0
2017-09-01T00:03:29.480Z,0
2017-09-01T00:04:42.071Z,0
2017-09-01T00:05:54.359Z,0
2017-09-01T00:07:06.907Z,0
2017-09-01T00:08:19.510Z,0
2017-09-01T00:09:32.083Z,0
2017-09-01T00:10:44.661Z,0
2017-09-01T00:11:57.238Z,0
2017-09-01T00:13:09.810Z,0
2017-09-01T00:14:22.336Z,0
2017-09-01T00:15:34.681Z,0
2017-09-01T00:16:47.002Z,0
2017-09-01T00:17:59.660Z,0
2017-09-01T00:19:12.202Z,0
2017-09-01T00:20:24.790Z,0
2017-09-01T00:21:37.407Z,0
2017-09-01T00:22:50.036Z,0
2017-09-01T00:24:02.351Z,0
2017-09-01T00:25:14.597Z,0
2017-09-01T00:26:26.887Z,0
2017-09-01T00:27:39.458Z,0
2017-09-01T00:28:51.764Z,0
2017-09-01T00:30:04.092Z,0
2017-09-01T00:31:16.345Z,0
2017-09-01T00:32:28.626Z,0
2017-09-01T00:33:41.272Z,0
2017-09-01T00:34:53.818Z,0
2017-09-01T00:36:06.426Z,0
2017-09-01T00:37:19.022Z,0
2017-09-01T00:38:31.605Z,0
2017-09-01T00:39:44.206Z,0
2017-09-01T00:40:56.834Z,0
2017-09-01T00:42:09.107Z,0
2017-09-01T00:43:21.651Z,0
2017-09-01T00:44:34.198Z,0
2017-09-01T00:45:46.484Z,0
2017-09-01T00:46:59.088Z,0
2017-09-01T00:48:11.659Z,0
2017-09-01T00:49:24.254Z,0
2017-09-01T00:50:36.455Z,0
2017-09-01T00:51:49.119Z,0
2017-09-01T00:53:01.367Z,0
2017-09-01T00:54:13.959Z,0
2017-09-01T00:55:26.509Z,0
2017-09-01T00:56:39.125Z,0
2017-09-01T00:57:51.726Z,0
2017-09-01T00:59:04.253Z,0
2017-09-01T01:00:16.833Z,0
2017-09-01T01:01:29.423Z,0
2017-09-01T01:02:42.062Z,0
2017-09-01T01:03:54.668Z,0
2017-09-01T01:05:07.276Z,0
2017-09-01T01:06:19.869Z,0
2017-09-01T01:07:31.530Z,0
2017-09-01T01:08:44.090Z,0
2017-09-01T01:09:56.682Z,0
2017-09-01T01:11:09.286Z,0
2017-09-01T01:12:21.913Z,0
2017-09-01T01:13:34.144Z,0
2017-09-01T01:14:46.420Z,0
2017-09-01T01:15:59.044Z,0
2017-09-01T01:17:11.312Z,0
2017-09-01T01:18:24.135Z,0
2017-09-01T01:19:36.744Z,0
2017-09-01T01:20:49.269Z,0
2017-09-01T01:22:01.810Z,0
2017-09-01T01:23:14.405Z,0
2017-09-01T01:24:27.038Z,0
2017-09-01T01:25:39.299Z,0
2017-09-01T01:26:51.890Z,0
2017-09-01T01:28:04.441Z,0
2017-09-01T01:29:17.058Z,0
2017-09-01T01:30:29.654Z,0
2017-09-01T01:31:42.203Z,0
2017-09-01T01:32:54.240Z,0
2017-09-01T01:34:06.817Z,0
2017-09-01T01:35:19.156Z,0
2017-09-01T01:36:31.709Z,0
2017-09-01T01:37:44.283Z,0
2017-09-01T01:38:56.853Z,0
2017-09-01T01:40:09.471Z,0
2017-09-01T01:41:22.098Z,0
2017-09-01T01:42:34.698Z,0
2017-09-01T01:43:47.332Z,0
2017-09-01T01:44:59.878Z,0
2017-09-01T01:46:12.127Z,0
2017-09-01T01:47:24.686Z,0
2017-09-01T01:48:36.995Z,0
2017-09-01T01:49:49.284Z,0
2017-09-01T01:51:02.083Z,0
2017-09-01T01:52:14.334Z,0
2017-09-01T01:53:26.885Z,0
2017-09-01T01:54:39.469Z,0
2017-09-01T01:55:51.695Z,0
2017-09-01T01:57:04.223Z,0
2017-09-01T01:58:16.507Z,0
2017-09-01T01:59:28.775Z,0
2017-09-01T02:00:41.358Z,0
2017-09-01T02:01:53.924Z,0
2017-09-01T02:03:06.515Z,0
2017-09-01T02:04:19.114Z,0
2017-09-01T02:05:31.396Z,0
2017-09-01T02:06:43.992Z,0
2017-09-01T02:07:56.231Z,0
2017-09-01T02:09:08.523Z,0
2017-09-01T02:10:21.068Z,0
2017-09-01T02:11:33.082Z,0
2017-09-01T02:12:45.353Z,0
2017-09-01T02:13:57.930Z,0
2017-09-01T02:15:10.472Z,0
2017-09-01T02:16:23.014Z,0
2017-09-01T02:17:35.300Z,0
2017-09-01T02:18:47.882Z,0
2017-09-01T02:20:00.153Z,0
2017-09-01T02:21:12.790Z,0
2017-09-01T02:22:25.379Z,0
2017-09-01T02:23:37.905Z,0
2017-09-01T02:24:50.120Z,0
2017-09-01T02:26:02.707Z,0
2017-09-01T02:27:15.303Z,0
2017-09-01T02:28:27.871Z,0
2017-09-01T02:29:40.144Z,0
2017-09-01T02:30:52.405Z,0
2017-09-01T02:32:05.014Z,0
2017-09-01T02:33:16.940Z,0
2017-09-01T02:34:29.550Z,0
2017-09-01T02:35:42.132Z,0
2017-09-01T02:36:54.402Z,0
2017-09-01T02:38:07.073Z,0
2017-09-01T02:39:19.293Z,0
2017-09-01T02:40:31.977Z,0
2017-09-01T02:41:44.551Z,0
2017-09-01T02:42:57.201Z,0
2017-09-01T02:44:09.743Z,0
2017-09-01T02:45:22.322Z,0
2017-09-01T02:46:34.973Z,0
2017-09-01T02:47:47.619Z,0
2017-09-01T02:49:00.204Z,0
2017-09-01T02:50:12.219Z,0
2017-09-01T02:51:24.513Z,0
2017-09-01T02:52:37.146Z,0
2017-09-01T02:53:49.729Z,0
2017-09-01T02:55:02.276Z,0
2017-09-01T02:56:14.899Z,0
2017-09-01T02:57:27.168Z,0
2017-09-01T02:58:39.698Z,0
2017-09-01T02:59:52.294Z,0
2017-09-01T03:01:04.928Z,0
2017-09-01T03:02:17.502Z,0
2017-09-01T03:03:30.147Z,0
2017-09-01T03:04:42.425Z,0
2017-09-01T03:05:55.105Z,0
2017-09-01T03:07:07.409Z,0
2017-09-01T03:08:20.008Z,0
2017-09-01T03:09:32.278Z,0
2017-09-01T03:10:44.549Z,0
2017-09-01T03:11:57.089Z,0
2017-09-01T03:13:09.390Z,0
2017-09-01T03:14:21.985Z,0
2017-09-01T03:15:34.585Z,0
2017-09-01T03:16:47.227Z,0
2017-09-01T03:17:59.817Z,0
2017-09-01T03:19:12.387Z,0
2017-09-01T03:20:25.014Z,0
2017-09-01T03:21:37.328Z,0
2017-09-01T03:22:49.942Z,0
2017-09-01T03:24:02.520Z,0
2017-09-01T03:25:15.120Z,0
2017-09-01T03:26:27.364Z,0
2017-09-01T03:27:39.635Z,0
2017-09-01T03:28:52.252Z,0
2017-09-01T03:30:04.810Z,0
2017-09-01T03:31:17.105Z,0
2017-09-01T03:32:29.670Z,0
2017-09-01T03:33:42.290Z,0
2017-09-01T03:34:54.543Z,0
2017-09-01T03:36:07.225Z,0
2017-09-01T03:37:19.804Z,0
2017-09-01T03:38:32.318Z,0
2017-09-01T03:39:45.121Z,0
2017-09-01T03:40:57.385Z,0
2017-09-01T03:42:09.963Z,0
2017-09-01T03:43:22.580Z,0
2017-09-01T03:44:35.214Z,0
2017-09-01T03:45:47.835Z,0
2017-09-01T03:47:00.395Z,0
2017-09-01T03:48:12.690Z,0
2017-09-01T03:49:25.246Z,0
2017-09-01T03:50:37.841Z,0
2017-09-01T03:51:50.382Z,0
2017-09-01T03:53:02.685Z,0
2017-09-01T03:54:14.954Z,0
2017-09-01T03:55:27.483Z,0
2017-09-01T03:56:40.083Z,0
2017-09-01T03:57:52.334Z,0
2017-09-01T03:59:04.899Z,0
2017-09-01T04:00:17.452Z,0
2017-09-01T04:01:30.092Z,0
2017-09-01T04:02:42.742Z,0
2017-09-01T04:03:55.377Z,0
2017-09-01T04:05:07.613Z,0
2017-09-01T04:06:20.222Z,0
2017-09-01T04:07:32.801Z,0
2017-09-01T04:08:45.410Z,0
2017-09-01T04:09:57.941Z,0
2017-09-01T04:11:10.556Z,0
2017-09-01T04:12:23.146Z,0
2017-09-01T04:13:35.429Z,0
2017-09-01T04:14:47.719Z,0
2017-09-01T04:15:59.988Z,5
2017-09-01T04:17:12.596Z,5
2017-09-01T04:18:25.113Z,5
2017-09-01T04:19:37.794Z,5
2017-09-01T04:20:50.044Z,5
2017-09-01T04:22:02.296Z,5
2017-09-01T04:23:14.900Z,10
2017-09-01T04:24:27.503Z,10
2017-09-01T04:25:40.117Z,10
2017-09-01T04:26:52.668Z,10
2017-09-01T04:28:05.249Z,15
2017-09-01T04:29:17.891Z,15
2017-09-01T04:30:30.499Z,15
2017-09-01T04:31:43.052Z,15
2017-09-01T04:32:55.683Z,20
2017-09-01T04:34:08.243Z,20
2017-09-01T04:35:20.266Z,20
2017-09-01T04:36:32.837Z,20
2017-09-01T04:37:45.379Z,25
2017-09-01T04:38:57.650Z,25
2017-09-01T04:40:09.926Z,25
2017-09-01T04:41:22.584Z,30
2017-09-01T04:42:35.119Z,30
2017-09-01T04:43:47.729Z,30
2017-09-01T04:45:00.281Z,30
2017-09-01T04:46:12.200Z,30
2017-09-01T04:47:24.781Z,35
2017-09-01T04:48:37.475Z,35
2017-09-01T04:49:50.024Z,35
2017-09-01T04:51:02.614Z,35
2017-09-01T04:52:15.219Z,40
2017-09-01T04:53:27.459Z,40
2017-09-01T04:54:40.027Z,45
2017-09-01T04:55:52.672Z,45
2017-09-01T04:57:05.235Z,50
2017-09-01T04:58:17.828Z,55
2017-09-01T04:59:30.387Z,60
2017-09-01T05:00:42.972Z,65
2017-09-01T05:01:55.579Z,70
2017-09-01T05:03:07.828Z,75
2017-09-01T05:04:20.461Z,75
2017-09-01T05:05:33.033Z,80
2017-09-01T05:06:45.667Z,80
2017-09-01T05:07:58.220Z,80
2017-09-01T05:09:10.148Z,80
2017-09-01T05:10:22.763Z,85
2017-09-01T05:11:35.364Z,85
2017-09-01T05:12:47.676Z,85
2017-09-01T05:14:00.275Z,85
2017-09-01T05:15:12.821Z,85
2017-09-01T05:16:25.350Z,90
2017-09-01T05:17:37.311Z,90
2017-09-01T05:18:49.892Z,90
2017-09-01T05:20:02.503Z,90
2017-09-01T05:21:15.053Z,90
2017-09-01T05:22:27.028Z,85
2017-09-01T05:23:39.588Z,85
2017-09-01T05:24:51.884Z,85
2017-09-01T05:26:04.458Z,90
2017-09-01T05:27:17.093Z,90
2017-09-01T05:28:29.332Z,100
2017-09-01T05:29:41.966Z,105
2017-09-01T05:30:54.554Z,110
2017-09-01T05:32:07.120Z,115
2017-09-01T05:33:19.711Z,110
2017-09-01T05:34:32.275Z,110
2017-09-01T05:35:44.795Z,105
2017-09-01T05:36:57.090Z,105
2017-09-01T05:38:09.354Z,110
2017-09-01T05:39:21.932Z,110
2017-09-01T05:40:34.506Z,115
2017-09-01T05:41:46.739Z,120
2017-09-01T05:42:59.056Z,130
2017-09-01T05:44:11.015Z,135
2017-09-01T05:45:23.328Z,140
2017-09-01T05:46:35.562Z,140
2017-09-01T05:47:48.144Z,145
2017-09-01T05:49:00.376Z,145
2017-09-01T05:50:12.344Z,140
2017-09-01T05:51:24.900Z,140
2017-09-01T05:52:37.220Z,140
2017-09-01T05:53:49.791Z,140
2017-09-01T05:55:02.433Z,140
2017-09-01T05:56:14.996Z,145
2017-09-01T05:57:27.223Z,150
2017-09-01T05:58:39.812Z,160
2017-09-01T05:59:52.389Z,165
2017-09-01T06:01:04.971Z,175
2017-09-01T06:02:17.498Z,190
2017-09-01T06:03:29.470Z,210
2017-09-01T06:04:41.717Z,220
2017-09-01T06:05:53.969Z,230
2017-09-01T06:07:06.559Z,240
2017-09-01T06:08:19.135Z,245
2017-09-01T06:09:31.685Z,245
2017-09-01T06:10:44.305Z,250
2017-09-01T06:11:56.917Z,255
2017-09-01T06:13:09.245Z,255
2017-09-01T06:14:21.848Z,255
2017-09-01T06:15:34.406Z,255
2017-09-01T06:16:46.689Z,255
2017-09-01T06:17:58.993Z,260
2017-09-01T06:19:11.582Z,265
2017-09-01T06:20:24.133Z,275
2017-09-01T06:21:36.722Z,280
2017-09-01T06:22:49.525Z,285
2017-09-01T06:24:01.796Z,285
2017-09-01T06:25:14.384Z,290
2017-09-01T06:26:27.000Z,295
2017-09-01T06:27:39.585Z,310
2017-09-01T06:28:52.205Z,305
2017-09-01T06:30:04.266Z,310
2017-09-01T06:31:16.845Z,320
2017-09-01T06:32:29.071Z,335
2017-09-01T06:33:41.692Z,340
2017-09-01T06:34:54.012Z,340
2017-09-01T06:36:05.971Z,345
2017-09-01T06:37:18.608Z,350
2017-09-01T06:38:30.868Z,340
2017-09-01T06:39:42.533Z,340
2017-09-01T06:40:54.792Z,355
2017-09-01T06:42:07.466Z,360
2017-09-01T06:43:20.076Z,385
2017-09-01T06:44:32.403Z,405
2017-09-01T06:45:45.020Z,480
2017-09-01T06:46:57.006Z,460
2017-09-01T06:48:09.258Z,430
2017-09-01T06:49:21.842Z,540
2017-09-01T06:50:33.868Z,520
2017-09-01T06:51:46.458Z,435
2017-09-01T06:52:59.108Z,445
2017-09-01T06:54:11.386Z,445
2017-09-01T06:55:23.683Z,430
2017-09-01T06:56:35.970Z,450
2017-09-01T06:57:48.616Z,485
2017-09-01T06:59:01.181Z,450
2017-09-01T07:00:13.772Z,465
2017-09-01T07:01:25.735Z,385
2017-09-01T07:02:38.040Z,325
2017-09-01T07:03:50.413Z,315
2017-09-01T07:05:02.980Z,260
2017-09-01T07:06:15.271Z,255
2017-09-01T07:07:27.891Z,260
2017-09-01T07:08:40.493Z,265
2017-09-01T07:09:52.455Z,260
2017-09-01T07:11:05.062Z,260
2017-09-01T07:12:17.649Z,260
2017-09-01T07:13:29.960Z,270
2017-09-01T07:14:42.538Z,290
2017-09-01T07:15:55.095Z,315
2017-09-01T07:17:07.704Z,355
2017-09-01T07:18:20.258Z,390
2017-09-01T07:19:32.544Z,470
2017-09-01T07:20:45.165Z,520
2017-09-01T07:21:57.729Z,595
2017-09-01T07:23:10.307Z,615
2017-09-01T07:24:22.295Z,630
2017-09-01T07:25:34.830Z,700
2017-09-01T07:26:47.370Z,875
2017-09-01T07:27:59.582Z,875
2017-09-01T07:29:12.167Z,905
2017-09-01T07:30:24.435Z,880
2017-09-01T07:31:37.082Z,805
2017-09-01T07:32:49.689Z,685
2017-09-01T07:34:01.635Z,660
2017-09-01T07:35:14.213Z,595
2017-09-01T07:36:26.497Z,630
2017-09-01T07:37:39.129Z,635
2017-09-01T07:38:51.139Z,655
2017-09-01T07:40:03.736Z,700
2017-09-01T07:41:16.368Z,910
2017-09-01T07:42:28.287Z,820
2017-09-01T07:43:40.914Z,900
2017-09-01T07:44:52.858Z,1020
2017-09-01T07:46:05.155Z,1140
2017-09-01T07:47:17.793Z,1260
2017-09-01T07:48:29.425Z,875
2017-09-01T07:49:42.035Z,890
2017-09-01T07:50:54.306Z,930
2017-09-01T07:52:06.602Z,895
2017-09-01T07:53:18.851Z,760
2017-09-01T07:54:31.173Z,655
2017-09-01T07:55:43.463Z,640
2017-09-01T07:56:55.760Z,610
2017-09-01T07:58:07.711Z,605
2017-09-01T07:59:20.033Z,615
2017-09-01T08:00:32.579Z,625
2017-09-01T08:01:44.874Z,635
2017-09-01T08:02:57.499Z,645
2017-09-01T08:04:09.396Z,655
2017-09-01T08:05:21.740Z,680
2017-09-01T08:06:33.675Z,690
2017-09-01T08:07:45.721Z,695
2017-09-01T08:08:57.967Z,715
2017-09-01T08:10:10.212Z,720
2017-09-01T08:11:22.494Z,715
2017-09-01T08:12:34.756Z,715
2017-09-01T08:13:47.323Z,705
2017-09-01T08:14:59.893Z,675
2017-09-01T08:16:12.540Z,670
2017-09-01T08:17:24.510Z,635
2017-09-01T08:18:37.057Z,630
2017-09-01T08:19:49.330Z,610
2017-09-01T08:21:01.226Z,580
2017-09-01T08:22:13.548Z,570
2017-09-01T08:23:26.169Z,550
2017-09-01T08:24:38.803Z,540
2017-09-01T08:25:51.054Z,535
2017-09-01T08:27:03.602Z,560
2017-09-01T08:28:16.196Z,585
2017-09-01T08:29:28.796Z,615
2017-09-01T08:30:40.770Z,630
2017-09-01T08:31:53.376Z,650
2017-09-01T08:33:05.961Z,640
2017-09-01T08:34:17.967Z,625
2017-09-01T08:35:30.233Z,635
2017-09-01T08:36:42.543Z,645
2017-09-01T08:37:55.087Z,655
2017-09-01T08:39:07.707Z,650
2017-09-01T08:40:20.229Z,675
2017-09-01T08:41:32.823Z,680
2017-09-01T08:42:45.497Z,675
2017-09-01T08:43:58.016Z,715
2017-09-01T08:45:10.609Z,710
2017-09-01T08:46:23.206Z,765
2017-09-01T08:47:35.430Z,765
2017-09-01T08:48:47.936Z,715
2017-09-01T08:50:00.495Z,670
2017-09-01T08:51:12.740Z,725
2017-09-01T08:52:24.763Z,695
2017-09-01T08:53:36.706Z,725
2017-09-01T08:54:49.285Z,800
2017-09-01T08:56:01.904Z,835
2017-09-01T08:57:14.196Z,830
2017-09-01T08:58:26.489Z,825
2017-09-01T08:59:38.751Z,825
2017-09-01T09:00:51.376Z,840
2017-09-01T09:02:04.079Z,880
2017-09-01T09:03:16.678Z,865
2017-09-01T09:04:28.342Z,825
2017-09-01T09:05:40.613Z,805
2017-09-01T09:06:52.875Z,775
2017-09-01T09:08:05.496Z,755
2017-09-01T09:09:17.799Z,770
2017-09-01T09:10:30.100Z,785
2017-09-01T09:11:42.666Z,795
2017-09-01T09:12:54.564Z,760
2017-09-01T09:14:06.838Z,730
2017-09-01T09:15:19.460Z,685
2017-09-01T09:16:31.724Z,645
2017-09-01T09:17:43.975Z,665
2017-09-01T09:18:55.889Z,695
2017-09-01T09:20:07.859Z,725
2017-09-01T09:21:19.479Z,750
2017-09-01T09:22:31.487Z,740
2017-09-01T09:23:44.075Z,725
2017-09-01T09:24:56.746Z,730
2017-09-01T09:26:09.027Z,750
2017-09-01T09:27:21.651Z,760
2017-09-01T09:28:33.929Z,780
2017-09-01T09:29:46.526Z,800
2017-09-01T09:30:59.071Z,815
2017-09-01T09:32:11.625Z,805
2017-09-01T09:33:24.213Z,805
2017-09-01T09:34:36.764Z,800
2017-09-01T09:35:49.288Z,805
2017-09-01T09:37:00.935Z,815
2017-09-01T09:38:12.910Z,825
2017-09-01T09:39:24.583Z,830
2017-09-01T09:40:36.853Z,850
2017-09-01T09:41:49.113Z,870
2017-09-01T09:43:01.352Z,875
2017-09-01T09:44:13.304Z,870
2017-09-01T09:45:25.569Z,875
2017-09-01T09:46:38.139Z,880
2017-09-01T09:47:50.166Z,900
2017-09-01T09:49:02.467Z,890
2017-09-01T09:50:14.499Z,845
2017-09-01T09:51:26.468Z,775
2017-09-01T09:52:38.792Z,735
2017-09-01T09:53:51.439Z,740
2017-09-01T09:55:04.010Z,755
2017-09-01T09:56:16.605Z,800
2017-09-01T09:57:28.525Z,845
2017-09-01T09:58:41.098Z,910
2017-09-01T09:59:53.592Z,930
2017-09-01T10:01:05.879Z,970
2017-09-01T10:02:18.231Z,1045
2017-09-01T10:03:30.178Z,1130
2017-09-01T10:04:42.424Z,1105
2017-09-01T10:05:54.387Z,1055
2017-09-01T10:07:06.616Z,985
2017-09-01T10:08:18.566Z,925
2017-09-01T10:09:30.836Z,980
2017-09-01T10:10:43.112Z,1025
2017-09-01T10:11:55.448Z,990
2017-09-01T10:13:07.374Z,1020
2017-09-01T10:14:19.967Z,1075
2017-09-01T10:15:31.913Z,1195
2017-09-01T10:16:43.909Z,1070
2017-09-01T10:17:56.429Z,945
2017-09-01T10:19:08.673Z,875
2017-09-01T10:20:20.899Z,840
2017-09-01T10:21:33.725Z,860
2017-09-01T10:22:46.345Z,880
2017-09-01T10:23:58.633Z,900
2017-09-01T10:25:10.950Z,880
2017-09-01T10:26:22.887Z,845
2017-09-01T10:27:35.172Z,805
2017-09-01T10:28:47.486Z,775
2017-09-01T10:29:59.463Z,745
2017-09-01T10:31:11.470Z,735
2017-09-01T10:32:23.441Z,725
2017-09-01T10:33:36.081Z,730
2017-09-01T10:34:48.116Z,720
2017-09-01T10:36:00.422Z,710
2017-09-01T10:37:12.732Z,690
2017-09-01T10:38:24.705Z,665
2017-09-01T10:39:37.281Z,650
2017-09-01T10:40:49.917Z,645
2017-09-01T10:42:01.890Z,640
2017-09-01T10:43:13.817Z,635
2017-09-01T10:44:25.834Z,615
2017-09-01T10:45:38.505Z,585
2017-09-01T10:46:50.784Z,565
2017-09-01T10:48:03.085Z,545
2017-09-01T10:49:15.699Z,525
2017-09-01T10:50:27.362Z,505
2017-09-01T10:51:39.397Z,475
2017-09-01T10:52:51.617Z,450
2017-09-01T10:54:04.167Z,445
2017-09-01T10:55:16.776Z,450
2017-09-01T10:56:29.123Z,470
2017-09-01T10:57:40.481Z,485
2017-09-01T10:58:52.439Z,490
2017-09-01T11:00:04.727Z,490
2017-09-01T11:01:17.348Z,485
2017-09-01T11:02:29.669Z,485
2017-09-01T11:03:41.947Z,480
2017-09-01T11:04:54.534Z,480
2017-09-01T11:06:06.829Z,480
2017-09-01T11:07:18.498Z,470
2017-09-01T11:08:31.100Z,465
2017-09-01T11:09:43.673Z,465
2017-09-01T11:10:56.211Z,470
2017-09-01T11:12:08.762Z,465
2017-09-01T11:13:21.062Z,455
2017-09-01T11:14:33.703Z,440
2017-09-01T11:15:46.021Z,430
2017-09-01T11:16:58.312Z,420
2017-09-01T11:18:10.577Z,425
2017-09-01T11:19:23.229Z,440
2017-09-01T11:20:34.972Z,435
2017-09-01T11:21:47.627Z,430
2017-09-01T11:22:59.891Z,435
2017-09-01T11:24:12.436Z,455
2017-09-01T11:25:25.035Z,470
2017-09-01T11:26:37.335Z,465
2017-09-01T11:27:49.913Z,450
2017-09-01T11:29:01.856Z,430
2017-09-01T11:30:14.067Z,415
2017-09-01T11:31:26.648Z,400
2017-09-01T11:32:38.957Z,390
2017-09-01T11:33:51.516Z,385
2017-09-01T11:35:03.779Z,380
2017-09-01T11:36:16.405Z,385
2017-09-01T11:37:29.275Z,390
2017-09-01T11:38:41.861Z,400
2017-09-01T11:39:53.804Z,405
2017-09-01T11:41:06.077Z,405
2017-09-01T11:42:18.675Z,405
2017-09-01T11:43:31.009Z,405
2017-09-01T11:44:43.024Z,415
2017-09-01T11:45:55.345Z,425
2017-09-01T11:47:07.635Z,440
2017-09-01T11:48:20.297Z,445
2017-09-01T11:49:32.245Z,445
2017-09-01T11:50:44.547Z,445
2017-09-01T11:51:57.145Z,440
2017-09-01T11:53:09.775Z,435
2017-09-01T11:54:21.990Z,425
2017-09-01T11:55:34.557Z,420
2017-09-01T11:56:46.872Z,415
2017-09-01T11:57:59.126Z,415
2017-09-01T11:59:11.386Z,415
2017-09-01T12:00:24.016Z,415
2017-09-01T12:01:36.626Z,415
2017-09-01T12:02:48.613Z,415
2017-09-01T12:04:00.621Z,405
2017-09-01T12:05:13.167Z,405
2017-09-01T12:06:25.765Z,405
2017-09-01T12:07:38.428Z,410
2017-09-01T12:08:51.059Z,405
2017-09-01T12:10:03.004Z,400
2017-09-01T12:11:15.267Z,405
2017-09-01T12:12:27.515Z,410
2017-09-01T12:13:40.135Z,410
2017-09-01T12:14:52.415Z,415
2017-09-01T12:16:05.031Z,420
2017-09-01T12:17:17.718Z,420
2017-09-01T12:18:29.966Z,415
2017-09-01T12:19:42.229Z,410
2017-09-01T12:20:54.835Z,405
2017-09-01T12:22:07.477Z,405
2017-09-01T12:23:20.085Z,405
2017-09-01T12:24:32.010Z,405
2017-09-01T12:25:44.614Z,400
2017-09-01T12:26:57.160Z,395
2017-09-01T12:28:09.110Z,390
2017-09-01T12:29:21.744Z,385
2017-09-01T12:30:34.035Z,385
2017-09-01T12:31:46.627Z,380
2017-09-01T12:32:58.616Z,380
2017-09-01T12:34:10.589Z,380
2017-09-01T12:35:23.083Z,385
2017-09-01T12:36:35.676Z,395
2017-09-01T12:37:48.280Z,400
2017-09-01T12:39:00.895Z,405
2017-09-01T12:40:13.494Z,400
2017-09-01T12:41:26.059Z,390
2017-09-01T12:42:38.371Z,380
2017-09-01T12:43:50.331Z,380
2017-09-01T12:45:02.605Z,375
2017-09-01T12:46:15.177Z,370
2017-09-01T12:47:27.572Z,365
2017-09-01T12:48:40.183Z,365
2017-09-01T12:49:52.778Z,365
2017-09-01T12:51:05.084Z,365
2017-09-01T12:52:17.375Z,370
2017-09-01T12:53:29.690Z,360
2017-09-01T12:54:41.918Z,350
2017-09-01T12:55:54.184Z,340
2017-09-01T12:57:06.769Z,330
2017-09-01T12:58:19.071Z,315
2017-09-01T12:59:31.707Z,320
2017-09-01T13:00:44.361Z,310
2017-09-01T13:01:56.676Z,315
2017-09-01T13:03:09.270Z,310
2017-09-01T13:04:21.931Z,305
2017-09-01T13:05:33.928Z,295
2017-09-01T13:06:46.541Z,290
2017-09-01T13:07:58.505Z,285
2017-09-01T13:09:11.083Z,280
2017-09-01T13:10:23.722Z,270
2017-09-01T13:11:36.303Z,265
2017-09-01T13:12:48.575Z,270
2017-09-01T13:14:01.143Z,275
2017-09-01T13:15:12.811Z,285
2017-09-01T13:16:25.424Z,295
2017-09-01T13:17:36.470Z,310
2017-09-01T13:18:48.981Z,330
2017-09-01T13:20:00.968Z,340
2017-09-01T13:21:12.971Z,365
2017-09-01T13:22:25.278Z,380
2017-09-01T13:23:37.512Z,400
2017-09-01T13:24:48.869Z,425
2017-09-01T13:26:01.101Z,440
2017-09-01T13:27:13.644Z,440
2017-09-01T13:28:25.943Z,435
2017-09-01T13:29:38.212Z,425
2017-09-01T13:30:50.779Z,410
2017-09-01T13:32:03.075Z,405
2017-09-01T13:33:14.995Z,410
2017-09-01T13:34:27.024Z,425
2017-09-01T13:35:39.639Z,425
2017-09-01T13:36:52.282Z,415
2017-09-01T13:38:04.898Z,400
2017-09-01T13:39:17.221Z,390
2017-09-01T13:40:29.451Z,390
2017-09-01T13:41:41.390Z,385
2017-09-01T13:42:54.004Z,385
2017-09-01T13:44:06.245Z,395
2017-09-01T13:45:18.534Z,400
2017-09-01T13:46:30.799Z,410
2017-09-01T13:47:43.043Z,425
2017-09-01T13:48:55.300Z,445
2017-09-01T13:50:07.918Z,445
2017-09-01T13:51:20.506Z,445
2017-09-01T13:52:33.134Z,440
2017-09-01T13:53:45.690Z,435
2017-09-01T13:54:58.284Z,420
2017-09-01T13:56:10.575Z,410
2017-09-01T13:57:23.227Z,395
2017-09-01T13:58:35.791Z,380
2017-09-01T13:59:48.107Z,360
2017-09-01T14:01:00.421Z,335
2017-09-01T14:02:13.048Z,310
2017-09-01T14:03:25.066Z,290
2017-09-01T14:04:37.656Z,280
2017-09-01T14:05:50.252Z,270
2017-09-01T14:07:02.860Z,270
2017-09-01T14:08:15.494Z,270
2017-09-01T14:09:28.072Z,275
2017-09-01T14:10:40.331Z,275
2017-09-01T14:11:52.638Z,270
2017-09-01T14:13:05.202Z,260
2017-09-01T14:14:17.747Z,250
2017-09-01T14:15:29.654Z,240
2017-09-01T14:16:41.676Z,230
2017-09-01T14:17:54.358Z,225
2017-09-01T14:19:07.006Z,225
2017-09-01T14:20:19.562Z,220
2017-09-01T14:21:31.529Z,210
2017-09-01T14:22:43.866Z,205
2017-09-01T14:23:56.470Z,195
2017-09-01T14:25:08.740Z,190
2017-09-01T14:26:21.005Z,185
2017-09-01T14:27:33.674Z,180
2017-09-01T14:28:45.673Z,180
2017-09-01T14:29:58.242Z,175
2017-09-01T14:31:10.786Z,175
2017-09-01T14:32:22.750Z,170
2017-09-01T14:33:35.382Z,170
2017-09-01T14:34:47.604Z,170
2017-09-01T14:35:59.893Z,170
2017-09-01T14:37:12.465Z,170
2017-09-01T14:38:24.753Z,165
2017-09-01T14:39:37.025Z,165
2017-09-01T14:40:49.002Z,165
2017-09-01T14:42:01.290Z,165
2017-09-01T14:43:13.219Z,165
2017-09-01T14:44:25.557Z,165
2017-09-01T14:45:37.826Z,160
2017-09-01T14:46:50.119Z,160
2017-09-01T14:48:02.758Z,155
2017-09-01T14:49:15.436Z,155
2017-09-01T14:50:28.099Z,155
2017-09-01T14:51:40.688Z,155
2017-09-01T14:52:52.957Z,155
2017-09-01T14:54:05.230Z,155
2017-09-01T14:55:17.502Z,155
2017-09-01T14:56:29.781Z,155
2017-09-01T14:57:42.119Z,160
2017-09-01T14:58:54.344Z,165
2017-09-01T15:00:06.624Z,165
2017-09-01T15:01:18.553Z,170
2017-09-01T15:02:31.150Z,170
2017-09-01T15:03:42.830Z,175
2017-09-01T15:04:55.052Z,180
2017-09-01T15:06:07.672Z,180
2017-09-01T15:07:20.273Z,180
2017-09-01T15:08:32.604Z,180
2017-09-01T15:09:44.573Z,175
2017-09-01T15:10:57.161Z,175
2017-09-01T15:12:09.775Z,170
2017-09-01T15:13:22.021Z,170
2017-09-01T15:14:34.622Z,170
2017-09-01T15:15:46.862Z,165
2017-09-01T15:16:59.372Z,165
2017-09-01T15:18:11.626Z,165
2017-09-01T15:19:23.963Z,170
2017-09-01T15:20:36.257Z,175
2017-09-01T15:21:48.880Z,175
2017-09-01T15:23:01.434Z,185
2017-09-01T15:24:14.039Z,180
2017-09-01T15:25:26.690Z,180
2017-09-01T15:26:39.266Z,180
2017-09-01T15:27:51.482Z,180
2017-09-01T15:29:03.706Z,175
2017-09-01T15:30:16.266Z,175
2017-09-01T15:31:28.621Z,175
2017-09-01T15:32:40.631Z,170
2017-09-01T15:33:53.259Z,170
2017-09-01T15:35:05.532Z,170
2017-09-01T15:36:17.500Z,170
2017-09-01T15:37:29.815Z,170
2017-09-01T15:38:42.368Z,170
2017-09-01T15:39:54.275Z,170
2017-09-01T15:41:06.627Z,170
2017-09-01T15:42:18.594Z,170
2017-09-01T15:43:30.902Z,170
2017-09-01T15:44:43.446Z,165
2017-09-01T15:45:55.740Z,165
2017-09-01T15:47:08.373Z,165
2017-09-01T15:48:21.008Z,160
2017-09-01T15:49:33.211Z,160
2017-09-01T15:50:45.817Z,155
2017-09-01T15:51:58.346Z,155
2017-09-01T15:53:10.972Z,155
2017-09-01T15:54:23.515Z,150
2017-09-01T15:55:35.883Z,150
2017-09-01T15:56:47.889Z,145
2017-09-01T15:58:00.480Z,145
2017-09-01T15:59:13.118Z,140
2017-09-01T16:00:25.397Z,140
2017-09-01T16:01:37.741Z,135
2017-09-01T16:02:49.709Z,135
2017-09-01T16:04:02.256Z,130
2017-09-01T16:05:13.920Z,130
2017-09-01T16:06:26.585Z,125
2017-09-01T16:07:38.281Z,120
2017-09-01T16:08:50.193Z,120
2017-09-01T16:10:02.464Z,115
2017-09-01T16:11:15.099Z,120
2017-09-01T16:12:27.424Z,110
2017-09-01T16:13:40.026Z,110
2017-09-01T16:14:52.281Z,110
2017-09-01T16:16:04.834Z,110
2017-09-01T16:17:17.432Z,110
2017-09-01T16:18:29.700Z,110
2017-09-01T16:19:41.622Z,110
2017-09-01T16:20:53.869Z,105
2017-09-01T16:22:06.162Z,105
2017-09-01T16:23:18.421Z,100
2017-09-01T16:24:30.784Z,95
2017-09-01T16:25:43.091Z,95
2017-09-01T16:26:55.047Z,95
2017-09-01T16:28:07.398Z,95
2017-09-01T16:29:19.078Z,90
2017-09-01T16:30:30.745Z,90
2017-09-01T16:31:43.383Z,90
2017-09-01T16:32:55.673Z,85
2017-09-01T16:34:07.922Z,85
2017-09-01T16:35:20.531Z,80
2017-09-01T16:36:32.538Z,80
2017-09-01T16:37:44.537Z,80
2017-09-01T16:38:57.150Z,80
2017-09-01T16:40:09.782Z,80
2017-09-01T16:41:21.779Z,80
2017-09-01T16:42:34.414Z,80
2017-09-01T16:43:46.987Z,75
2017-09-01T16:44:59.602Z,75
2017-09-01T16:46:11.610Z,70
2017-09-01T16:47:23.896Z,70
2017-09-01T16:48:36.158Z,70
2017-09-01T16:49:47.848Z,70
2017-09-01T16:51:00.439Z,70
2017-09-01T16:52:13.039Z,70
2017-09-01T16:53:25.051Z,70
2017-09-01T16:54:37.311Z,65
2017-09-01T16:55:49.941Z,65
2017-09-01T16:57:02.552Z,65
2017-09-01T16:58:14.884Z,60